sensor_id;sensor_type;location;lat;lon;timestamp;P1;durP1;ratioP1;P2;durP2;ratioP2
6463;SDS011;3265;42.694;23.282;2022-07-23T00:00:17;16.35;;;8.10;;
6463;SDS011;3265;42.694;23.282;2022-07-23T00:02:44;18.08;;;8.70;;
6463;SDS011;3265;42.694;23.282;2022-07-23T00:05:13;13.93;;;9.25;;
6463;SDS011;3265;42.694;23.282;2022-07-23T00:07:40;17.77;;;10.35;;
6463;SDS011;3265;42.694;23.282;2022-07-23T00:10:07;16.60;;;10.18;;
6463;SDS011;3265;42.694;23.282;2022-07-23T00:12:35;21.45;;;9.43;;
6463;SDS011;3265;42.694;23.282;2022-07-23T00:15:02;17.40;;;9.38;;
6463;SDS011;3265;42.694;23.282;2022-07-23T00:17:31;21.15;;;10.77;;
6463;SDS011;3265;42.694;23.282;2022-07-23T00:19:58;25.25;;;12.25;;
6463;SDS011;3265;42.694;23.282;2022-07-23T00:22:27;21.33;;;11.73;;
6463;SDS011;3265;42.694;23.282;2022-07-23T00:24:54;24.80;;;12.13;;
6463;SDS011;3265;42.694;23.282;2022-07-23T00:27:21;20.55;;;10.63;;
6463;SDS011;3265;42.694;23.282;2022-07-23T00:29:48;25.25;;;10.65;;
6463;SDS011;3265;42.694;23.282;2022-07-23T00:32:15;17.42;;;11.38;;
6463;SDS011;3265;42.694;23.282;2022-07-23T00:34:42;24.05;;;12.20;;
6463;SDS011;3265;42.694;23.282;2022-07-23T00:37:10;18.65;;;11.75;;
6463;SDS011;3265;42.694;23.282;2022-07-23T00:39:39;20.98;;;12.13;;
6463;SDS011;3265;42.694;23.282;2022-07-23T00:42:05;23.38;;;11.38;;
6463;SDS011;3265;42.694;23.282;2022-07-23T00:44:32;17.83;;;10.98;;
6463;SDS011;3265;42.694;23.282;2022-07-23T00:46:59;20.27;;;11.00;;
6463;SDS011;3265;42.694;23.282;2022-07-23T00:49:27;21.05;;;11.15;;
6463;SDS011;3265;42.694;23.282;2022-07-23T00:51:55;21.10;;;10.27;;
6463;SDS011;3265;42.694;23.282;2022-07-23T00:54:24;18.83;;;10.63;;
6463;SDS011;3265;42.694;23.282;2022-07-23T00:56:54;23.67;;;9.30;;
6463;SDS011;3265;42.694;23.282;2022-07-23T00:59:20;16.77;;;9.18;;
6463;SDS011;3265;42.694;23.282;2022-07-23T01:01:47;16.15;;;9.40;;
6463;SDS011;3265;42.694;23.282;2022-07-23T01:04:14;15.38;;;8.90;;
6463;SDS011;3265;42.694;23.282;2022-07-23T01:06:41;16.58;;;9.18;;
6463;SDS011;3265;42.694;23.282;2022-07-23T01:09:09;18.23;;;9.27;;
6463;SDS011;3265;42.694;23.282;2022-07-23T01:11:36;20.48;;;9.18;;
6463;SDS011;3265;42.694;23.282;2022-07-23T01:14:14;17.90;;;9.15;;
6463;SDS011;3265;42.694;23.282;2022-07-23T01:16:43;14.63;;;8.50;;
6463;SDS011;3265;42.694;23.282;2022-07-23T01:19:11;19.10;;;9.38;;
6463;SDS011;3265;42.694;23.282;2022-07-23T01:21:39;18.48;;;8.70;;
6463;SDS011;3265;42.694;23.282;2022-07-23T01:24:09;17.75;;;8.55;;
6463;SDS011;3265;42.694;23.282;2022-07-23T01:26:37;14.68;;;8.80;;
6463;SDS011;3265;42.694;23.282;2022-07-23T01:29:05;21.10;;;9.07;;
6463;SDS011;3265;42.694;23.282;2022-07-23T01:31:32;14.88;;;9.13;;
6463;SDS011;3265;42.694;23.282;2022-07-23T01:33:59;17.70;;;9.85;;
6463;SDS011;3265;42.694;23.282;2022-07-23T01:36:26;14.27;;;8.70;;
6463;SDS011;3265;42.694;23.282;2022-07-23T01:38:53;19.67;;;9.10;;
6463;SDS011;3265;42.694;23.282;2022-07-23T01:41:21;19.90;;;10.48;;
6463;SDS011;3265;42.694;23.282;2022-07-23T01:43:48;19.70;;;10.77;;
6463;SDS011;3265;42.694;23.282;2022-07-23T01:46:15;15.82;;;11.13;;
6463;SDS011;3265;42.694;23.282;2022-07-23T01:48:42;18.85;;;11.35;;
6463;SDS011;3265;42.694;23.282;2022-07-23T01:51:08;20.73;;;11.13;;
6463;SDS011;3265;42.694;23.282;2022-07-23T01:53:35;17.25;;;11.02;;
6463;SDS011;3265;42.694;23.282;2022-07-23T01:56:02;25.02;;;11.30;;
6463;SDS011;3265;42.694;23.282;2022-07-23T01:58:31;16.92;;;9.95;;
6463;SDS011;3265;42.694;23.282;2022-07-23T02:00:58;24.67;;;9.60;;
6463;SDS011;3265;42.694;23.282;2022-07-23T02:03:25;17.58;;;9.60;;
6463;SDS011;3265;42.694;23.282;2022-07-23T02:05:52;18.45;;;10.43;;
6463;SDS011;3265;42.694;23.282;2022-07-23T02:08:19;20.20;;;10.02;;
6463;SDS011;3265;42.694;23.282;2022-07-23T02:10:46;16.67;;;10.20;;
6463;SDS011;3265;42.694;23.282;2022-07-23T02:13:13;18.23;;;9.52;;
6463;SDS011;3265;42.694;23.282;2022-07-23T02:15:42;20.48;;;10.05;;
6463;SDS011;3265;42.694;23.282;2022-07-23T02:18:09;16.80;;;9.48;;
6463;SDS011;3265;42.694;23.282;2022-07-23T02:20:36;20.58;;;9.90;;
6463;SDS011;3265;42.694;23.282;2022-07-23T02:23:04;19.33;;;9.63;;
6463;SDS011;3265;42.694;23.282;2022-07-23T02:25:31;28.77;;;9.68;;
6463;SDS011;3265;42.694;23.282;2022-07-23T02:27:59;23.80;;;9.73;;
6463;SDS011;3265;42.694;23.282;2022-07-23T02:30:26;19.17;;;9.68;;
6463;SDS011;3265;42.694;23.282;2022-07-23T02:32:54;20.10;;;10.00;;
6463;SDS011;3265;42.694;23.282;2022-07-23T02:35:21;20.92;;;10.13;;
6463;SDS011;3265;42.694;23.282;2022-07-23T02:37:47;14.98;;;9.68;;
6463;SDS011;3265;42.694;23.282;2022-07-23T02:40:14;18.65;;;9.82;;
6463;SDS011;3265;42.694;23.282;2022-07-23T02:42:41;16.65;;;9.82;;
6463;SDS011;3265;42.694;23.282;2022-07-23T02:45:08;15.52;;;9.32;;
6463;SDS011;3265;42.694;23.282;2022-07-23T02:47:36;23.92;;;9.93;;
6463;SDS011;3265;42.694;23.282;2022-07-23T02:50:04;14.38;;;8.85;;
6463;SDS011;3265;42.694;23.282;2022-07-23T02:52:32;18.38;;;9.68;;
6463;SDS011;3265;42.694;23.282;2022-07-23T02:54:59;14.48;;;9.30;;
6463;SDS011;3265;42.694;23.282;2022-07-23T02:57:26;14.57;;;9.40;;
6463;SDS011;3265;42.694;23.282;2022-07-23T02:59:52;15.10;;;9.02;;
6463;SDS011;3265;42.694;23.282;2022-07-23T03:02:19;12.65;;;8.88;;
6463;SDS011;3265;42.694;23.282;2022-07-23T03:04:46;17.45;;;9.68;;
6463;SDS011;3265;42.694;23.282;2022-07-23T03:07:15;13.98;;;8.88;;
6463;SDS011;3265;42.694;23.282;2022-07-23T03:09:42;21.27;;;9.65;;
6463;SDS011;3265;42.694;23.282;2022-07-23T03:12:09;21.17;;;8.63;;
6463;SDS011;3265;42.694;23.282;2022-07-23T03:14:36;17.63;;;8.63;;
6463;SDS011;3265;42.694;23.282;2022-07-23T03:17:03;18.38;;;8.85;;
6463;SDS011;3265;42.694;23.282;2022-07-23T03:19:30;16.85;;;8.65;;
6463;SDS011;3265;42.694;23.282;2022-07-23T03:21:56;11.57;;;7.95;;
6463;SDS011;3265;42.694;23.282;2022-07-23T03:24:25;15.98;;;8.38;;
6463;SDS011;3265;42.694;23.282;2022-07-23T03:27:12;12.38;;;7.95;;
6463;SDS011;3265;42.694;23.282;2022-07-23T03:29:39;14.55;;;8.00;;
6463;SDS011;3265;42.694;23.282;2022-07-23T03:32:06;11.43;;;7.60;;
6463;SDS011;3265;42.694;23.282;2022-07-23T03:34:33;12.85;;;8.07;;
6463;SDS011;3265;42.694;23.282;2022-07-23T03:37:00;13.75;;;8.48;;
6463;SDS011;3265;42.694;23.282;2022-07-23T03:39:29;22.83;;;9.05;;
6463;SDS011;3265;42.694;23.282;2022-07-23T03:41:55;14.10;;;8.95;;
6463;SDS011;3265;42.694;23.282;2022-07-23T03:44:22;17.83;;;8.98;;
6463;SDS011;3265;42.694;23.282;2022-07-23T03:46:49;13.48;;;8.90;;
6463;SDS011;3265;42.694;23.282;2022-07-23T03:49:16;18.15;;;8.98;;
6463;SDS011;3265;42.694;23.282;2022-07-23T03:51:43;14.20;;;8.48;;
6463;SDS011;3265;42.694;23.282;2022-07-23T03:54:10;16.02;;;8.65;;
6463;SDS011;3265;42.694;23.282;2022-07-23T03:56:38;13.85;;;8.60;;
6463;SDS011;3265;42.694;23.282;2022-07-23T03:59:05;18.50;;;8.75;;
6463;SDS011;3265;42.694;23.282;2022-07-23T04:01:32;14.60;;;9.27;;
6463;SDS011;3265;42.694;23.282;2022-07-23T04:03:59;14.18;;;8.90;;
6463;SDS011;3265;42.694;23.282;2022-07-23T04:06:26;13.10;;;9.05;;
6463;SDS011;3265;42.694;23.282;2022-07-23T04:08:53;15.38;;;8.63;;
6463;SDS011;3265;42.694;23.282;2022-07-23T04:11:20;20.67;;;9.52;;
6463;SDS011;3265;42.694;23.282;2022-07-23T04:13:49;17.10;;;10.65;;
6463;SDS011;3265;42.694;23.282;2022-07-23T04:16:15;17.25;;;9.95;;
6463;SDS011;3265;42.694;23.282;2022-07-23T04:18:43;14.20;;;9.02;;
6463;SDS011;3265;42.694;23.282;2022-07-23T04:21:10;15.50;;;9.32;;
6463;SDS011;3265;42.694;23.282;2022-07-23T04:23:37;18.73;;;9.70;;
6463;SDS011;3265;42.694;23.282;2022-07-23T04:26:04;19.90;;;9.43;;
6463;SDS011;3265;42.694;23.282;2022-07-23T04:28:31;18.55;;;9.30;;
6463;SDS011;3265;42.694;23.282;2022-07-23T04:30:59;13.70;;;8.70;;
6463;SDS011;3265;42.694;23.282;2022-07-23T04:33:26;18.55;;;9.38;;
6463;SDS011;3265;42.694;23.282;2022-07-23T04:35:53;16.15;;;9.52;;
6463;SDS011;3265;42.694;23.282;2022-07-23T04:38:20;18.95;;;8.50;;
6463;SDS011;3265;42.694;23.282;2022-07-23T04:40:47;13.52;;;8.45;;
6463;SDS011;3265;42.694;23.282;2022-07-23T04:43:14;14.80;;;8.68;;
6463;SDS011;3265;42.694;23.282;2022-07-23T04:45:40;12.93;;;8.70;;
6463;SDS011;3265;42.694;23.282;2022-07-23T04:48:09;14.57;;;9.52;;
6463;SDS011;3265;42.694;23.282;2022-07-23T04:50:36;15.00;;;8.90;;
6463;SDS011;3265;42.694;23.282;2022-07-23T04:53:03;17.35;;;9.57;;
6463;SDS011;3265;42.694;23.282;2022-07-23T04:55:30;16.95;;;9.48;;
6463;SDS011;3265;42.694;23.282;2022-07-23T04:57:57;16.88;;;9.27;;
6463;SDS011;3265;42.694;23.282;2022-07-23T05:00:24;16.02;;;9.27;;
6463;SDS011;3265;42.694;23.282;2022-07-23T05:02:50;23.05;;;10.30;;
6463;SDS011;3265;42.694;23.282;2022-07-23T05:05:19;16.17;;;9.27;;
6463;SDS011;3265;42.694;23.282;2022-07-23T05:07:46;17.02;;;9.23;;
6463;SDS011;3265;42.694;23.282;2022-07-23T05:10:12;16.10;;;9.60;;
6463;SDS011;3265;42.694;23.282;2022-07-23T05:12:39;16.38;;;9.45;;
6463;SDS011;3265;42.694;23.282;2022-07-23T05:15:06;17.38;;;10.25;;
6463;SDS011;3265;42.694;23.282;2022-07-23T05:17:34;22.80;;;9.63;;
6463;SDS011;3265;42.694;23.282;2022-07-23T05:20:01;23.15;;;9.68;;
6463;SDS011;3265;42.694;23.282;2022-07-23T05:22:30;19.85;;;9.25;;
6463;SDS011;3265;42.694;23.282;2022-07-23T05:24:56;16.88;;;9.60;;
6463;SDS011;3265;42.694;23.282;2022-07-23T05:27:23;16.90;;;9.20;;
6463;SDS011;3265;42.694;23.282;2022-07-23T05:29:50;23.08;;;10.27;;
6463;SDS011;3265;42.694;23.282;2022-07-23T05:32:17;23.00;;;10.20;;
6463;SDS011;3265;42.694;23.282;2022-07-23T05:34:44;16.88;;;10.23;;
6463;SDS011;3265;42.694;23.282;2022-07-23T05:37:11;20.50;;;9.70;;
6463;SDS011;3265;42.694;23.282;2022-07-23T05:39:39;21.35;;;10.02;;
6463;SDS011;3265;42.694;23.282;2022-07-23T05:42:06;11.68;;;9.00;;
6463;SDS011;3265;42.694;23.282;2022-07-23T05:44:33;15.00;;;10.20;;
6463;SDS011;3265;42.694;23.282;2022-07-23T05:47:00;16.13;;;9.95;;
6463;SDS011;3265;42.694;23.282;2022-07-23T05:49:27;17.63;;;9.98;;
6463;SDS011;3265;42.694;23.282;2022-07-23T05:51:54;21.77;;;9.43;;
6463;SDS011;3265;42.694;23.282;2022-07-23T05:54:21;15.82;;;9.77;;
6463;SDS011;3265;42.694;23.282;2022-07-23T05:56:49;19.08;;;9.70;;
6463;SDS011;3265;42.694;23.282;2022-07-23T05:59:17;19.75;;;10.13;;
6463;SDS011;3265;42.694;23.282;2022-07-23T06:01:44;20.75;;;10.15;;
6463;SDS011;3265;42.694;23.282;2022-07-23T06:04:11;18.08;;;9.20;;
6463;SDS011;3265;42.694;23.282;2022-07-23T06:06:38;18.95;;;9.85;;
6463;SDS011;3265;42.694;23.282;2022-07-23T06:09:05;16.17;;;9.38;;
6463;SDS011;3265;42.694;23.282;2022-07-23T06:11:32;17.85;;;9.65;;
6463;SDS011;3265;42.694;23.282;2022-07-23T06:14:01;21.83;;;9.65;;
6463;SDS011;3265;42.694;23.282;2022-07-23T06:16:28;17.77;;;9.00;;
6463;SDS011;3265;42.694;23.282;2022-07-23T06:18:56;16.08;;;9.05;;
6463;SDS011;3265;42.694;23.282;2022-07-23T06:21:23;19.45;;;8.88;;
6463;SDS011;3265;42.694;23.282;2022-07-23T06:23:50;17.70;;;9.30;;
6463;SDS011;3265;42.694;23.282;2022-07-23T06:26:16;17.95;;;9.30;;
6463;SDS011;3265;42.694;23.282;2022-07-23T06:28:43;16.30;;;9.18;;
6463;SDS011;3265;42.694;23.282;2022-07-23T06:31:11;14.45;;;9.35;;
6463;SDS011;3265;42.694;23.282;2022-07-23T06:33:38;15.95;;;9.43;;
6463;SDS011;3265;42.694;23.282;2022-07-23T06:36:05;18.52;;;9.20;;
6463;SDS011;3265;42.694;23.282;2022-07-23T06:38:33;18.92;;;9.68;;
6463;SDS011;3265;42.694;23.282;2022-07-23T06:41:00;15.68;;;9.55;;
6463;SDS011;3265;42.694;23.282;2022-07-23T06:43:41;17.48;;;9.18;;
6463;SDS011;3265;42.694;23.282;2022-07-23T06:46:08;20.30;;;9.35;;
6463;SDS011;3265;42.694;23.282;2022-07-23T06:48:37;16.33;;;10.05;;
6463;SDS011;3265;42.694;23.282;2022-07-23T06:51:04;20.13;;;9.52;;
6463;SDS011;3265;42.694;23.282;2022-07-23T06:53:32;17.98;;;9.60;;
6463;SDS011;3265;42.694;23.282;2022-07-23T06:55:59;15.38;;;9.80;;
6463;SDS011;3265;42.694;23.282;2022-07-23T06:58:26;18.30;;;10.05;;
6463;SDS011;3265;42.694;23.282;2022-07-23T07:00:53;20.05;;;9.75;;
6463;SDS011;3265;42.694;23.282;2022-07-23T07:03:22;23.33;;;10.23;;
6463;SDS011;3265;42.694;23.282;2022-07-23T07:05:50;21.33;;;9.95;;
6463;SDS011;3265;42.694;23.282;2022-07-23T07:08:18;17.88;;;11.00;;
6463;SDS011;3265;42.694;23.282;2022-07-23T07:10:45;21.27;;;10.63;;
6463;SDS011;3265;42.694;23.282;2022-07-23T07:13:12;18.60;;;11.13;;
6463;SDS011;3265;42.694;23.282;2022-07-23T07:15:41;15.15;;;10.07;;
6463;SDS011;3265;42.694;23.282;2022-07-23T07:18:08;20.75;;;10.13;;
6463;SDS011;3265;42.694;23.282;2022-07-23T07:20:35;13.95;;;10.38;;
6463;SDS011;3265;42.694;23.282;2022-07-23T07:23:03;21.38;;;11.00;;
6463;SDS011;3265;42.694;23.282;2022-07-23T07:25:30;22.70;;;9.98;;
6463;SDS011;3265;42.694;23.282;2022-07-23T07:27:57;17.90;;;9.93;;
6463;SDS011;3265;42.694;23.282;2022-07-23T07:30:24;16.60;;;10.35;;
6463;SDS011;3265;42.694;23.282;2022-07-23T07:32:51;21.15;;;9.90;;
6463;SDS011;3265;42.694;23.282;2022-07-23T07:35:18;19.48;;;10.65;;
6463;SDS011;3265;42.694;23.282;2022-07-23T07:37:45;23.17;;;9.90;;
6463;SDS011;3265;42.694;23.282;2022-07-23T07:40:14;16.80;;;9.40;;
6463;SDS011;3265;42.694;23.282;2022-07-23T07:42:45;16.23;;;10.00;;
6463;SDS011;3265;42.694;23.282;2022-07-23T07:45:12;17.65;;;10.40;;
6463;SDS011;3265;42.694;23.282;2022-07-23T07:47:40;21.17;;;10.13;;
6463;SDS011;3265;42.694;23.282;2022-07-23T07:50:07;15.25;;;9.48;;
6463;SDS011;3265;42.694;23.282;2022-07-23T07:52:35;21.63;;;9.40;;
6463;SDS011;3265;42.694;23.282;2022-07-23T07:55:02;15.63;;;9.25;;
6463;SDS011;3265;42.694;23.282;2022-07-23T07:57:31;20.77;;;10.30;;
6463;SDS011;3265;42.694;23.282;2022-07-23T07:59:58;16.75;;;10.48;;
6463;SDS011;3265;42.694;23.282;2022-07-23T08:02:25;18.90;;;9.30;;
6463;SDS011;3265;42.694;23.282;2022-07-23T08:04:52;15.77;;;9.77;;
6463;SDS011;3265;42.694;23.282;2022-07-23T08:07:22;21.67;;;10.07;;
6463;SDS011;3265;42.694;23.282;2022-07-23T08:09:49;18.48;;;10.10;;
6463;SDS011;3265;42.694;23.282;2022-07-23T08:12:16;22.50;;;9.75;;
6463;SDS011;3265;42.694;23.282;2022-07-23T08:14:45;20.95;;;9.52;;
6463;SDS011;3265;42.694;23.282;2022-07-23T08:17:12;20.45;;;9.55;;
6463;SDS011;3265;42.694;23.282;2022-07-23T08:19:38;22.52;;;10.40;;
6463;SDS011;3265;42.694;23.282;2022-07-23T08:22:05;19.13;;;9.77;;
6463;SDS011;3265;42.694;23.282;2022-07-23T08:24:32;18.65;;;9.50;;
6463;SDS011;3265;42.694;23.282;2022-07-23T08:26:59;20.42;;;9.55;;
6463;SDS011;3265;42.694;23.282;2022-07-23T08:29:26;12.43;;;8.82;;
6463;SDS011;3265;42.694;23.282;2022-07-23T08:31:55;20.92;;;9.07;;
6463;SDS011;3265;42.694;23.282;2022-07-23T08:34:21;9.27;;;5.85;;
6463;SDS011;3265;42.694;23.282;2022-07-23T08:36:48;19.63;;;9.68;;
6463;SDS011;3265;42.694;23.282;2022-07-23T08:39:15;12.68;;;7.90;;
6463;SDS011;3265;42.694;23.282;2022-07-23T08:41:43;15.70;;;7.55;;
6463;SDS011;3265;42.694;23.282;2022-07-23T08:44:10;14.02;;;8.10;;
6463;SDS011;3265;42.694;23.282;2022-07-23T08:46:37;14.65;;;7.18;;
6463;SDS011;3265;42.694;23.282;2022-07-23T08:49:08;10.38;;;6.90;;
6463;SDS011;3265;42.694;23.282;2022-07-23T08:51:35;25.83;;;9.25;;
6463;SDS011;3265;42.694;23.282;2022-07-23T08:54:02;18.38;;;8.95;;
6463;SDS011;3265;42.694;23.282;2022-07-23T08:56:29;18.88;;;8.10;;
6463;SDS011;3265;42.694;23.282;2022-07-23T08:58:56;17.27;;;7.30;;
6463;SDS011;3265;42.694;23.282;2022-07-23T09:01:23;10.93;;;7.30;;
6463;SDS011;3265;42.694;23.282;2022-07-23T09:03:53;14.45;;;8.50;;
6463;SDS011;3265;42.694;23.282;2022-07-23T09:06:25;13.13;;;8.20;;
6463;SDS011;3265;42.694;23.282;2022-07-23T09:08:53;17.52;;;8.88;;
6463;SDS011;3265;42.694;23.282;2022-07-23T09:11:23;12.50;;;8.25;;
6463;SDS011;3265;42.694;23.282;2022-07-23T09:13:53;14.57;;;8.20;;
6463;SDS011;3265;42.694;23.282;2022-07-23T09:16:24;16.60;;;8.50;;
6463;SDS011;3265;42.694;23.282;2022-07-23T09:18:54;14.35;;;7.93;;
6463;SDS011;3265;42.694;23.282;2022-07-23T09:21:24;14.50;;;8.38;;
6463;SDS011;3265;42.694;23.282;2022-07-23T09:23:57;11.90;;;7.47;;
6463;SDS011;3265;42.694;23.282;2022-07-23T09:26:27;14.50;;;7.45;;
6463;SDS011;3265;42.694;23.282;2022-07-23T09:29:00;16.20;;;8.25;;
6463;SDS011;3265;42.694;23.282;2022-07-23T09:31:34;14.15;;;8.05;;
6463;SDS011;3265;42.694;23.282;2022-07-23T09:34:16;14.60;;;7.80;;
6463;SDS011;3265;42.694;23.282;2022-07-23T09:36:47;14.45;;;7.68;;
6463;SDS011;3265;42.694;23.282;2022-07-23T09:39:14;16.20;;;7.57;;
6463;SDS011;3265;42.694;23.282;2022-07-23T09:41:48;13.40;;;7.70;;
6463;SDS011;3265;42.694;23.282;2022-07-23T09:44:15;18.50;;;8.50;;
6463;SDS011;3265;42.694;23.282;2022-07-23T09:46:44;15.75;;;8.25;;
6463;SDS011;3265;42.694;23.282;2022-07-23T09:49:13;17.38;;;7.25;;
6463;SDS011;3265;42.694;23.282;2022-07-23T09:51:49;18.50;;;8.43;;
6463;SDS011;3265;42.694;23.282;2022-07-23T09:54:26;22.05;;;9.02;;
6463;SDS011;3265;42.694;23.282;2022-07-23T09:57:04;18.13;;;7.70;;
6463;SDS011;3265;42.694;23.282;2022-07-23T09:59:39;13.00;;;7.30;;
6463;SDS011;3265;42.694;23.282;2022-07-23T10:02:08;14.13;;;8.65;;
6463;SDS011;3265;42.694;23.282;2022-07-23T10:04:40;22.73;;;17.20;;
6463;SDS011;3265;42.694;23.282;2022-07-23T10:07:08;18.73;;;12.65;;
6463;SDS011;3265;42.694;23.282;2022-07-23T10:09:37;15.50;;;9.77;;
6463;SDS011;3265;42.694;23.282;2022-07-23T10:12:05;16.42;;;7.22;;
6463;SDS011;3265;42.694;23.282;2022-07-23T10:14:53;16.30;;;7.25;;
6463;SDS011;3265;42.694;23.282;2022-07-23T10:17:19;16.80;;;7.15;;
6463;SDS011;3265;42.694;23.282;2022-07-23T10:19:46;18.27;;;7.93;;
6463;SDS011;3265;42.694;23.282;2022-07-23T10:22:18;14.13;;;7.43;;
6463;SDS011;3265;42.694;23.282;2022-07-23T10:24:49;15.82;;;6.93;;
6463;SDS011;3265;42.694;23.282;2022-07-23T10:27:33;12.23;;;6.75;;
6463;SDS011;3265;42.694;23.282;2022-07-23T10:30:17;11.98;;;7.00;;
6463;SDS011;3265;42.694;23.282;2022-07-23T10:32:52;13.77;;;6.88;;
6463;SDS011;3265;42.694;23.282;2022-07-23T10:35:31;17.00;;;7.07;;
6463;SDS011;3265;42.694;23.282;2022-07-23T10:38:10;17.70;;;7.65;;
6463;SDS011;3265;42.694;23.282;2022-07-23T10:40:52;16.75;;;7.10;;
6463;SDS011;3265;42.694;23.282;2022-07-23T10:43:21;19.73;;;7.07;;
6463;SDS011;3265;42.694;23.282;2022-07-23T10:45:48;16.95;;;7.07;;
6463;SDS011;3265;42.694;23.282;2022-07-23T10:48:19;12.55;;;6.70;;
6463;SDS011;3265;42.694;23.282;2022-07-23T10:51:07;14.38;;;5.60;;
6463;SDS011;3265;42.694;23.282;2022-07-23T10:53:55;16.65;;;6.32;;
6463;SDS011;3265;42.694;23.282;2022-07-23T10:59:31;14.38;;;5.90;;
6463;SDS011;3265;42.694;23.282;2022-07-23T11:04:51;13.55;;;5.72;;
6463;SDS011;3265;42.694;23.282;2022-07-23T11:07:19;14.88;;;5.63;;
6463;SDS011;3265;42.694;23.282;2022-07-23T11:09:47;14.25;;;6.35;;
6463;SDS011;3265;42.694;23.282;2022-07-23T11:12:35;16.95;;;6.00;;
6463;SDS011;3265;42.694;23.282;2022-07-23T11:15:03;22.00;;;5.65;;
6463;SDS011;3265;42.694;23.282;2022-07-23T11:17:33;20.75;;;5.75;;
6463;SDS011;3265;42.694;23.282;2022-07-23T11:20:14;15.20;;;5.60;;
6463;SDS011;3265;42.694;23.282;2022-07-23T11:22:47;17.02;;;5.40;;
6463;SDS011;3265;42.694;23.282;2022-07-23T11:25:30;9.88;;;5.13;;
6463;SDS011;3265;42.694;23.282;2022-07-23T11:28:18;18.52;;;6.30;;
6463;SDS011;3265;42.694;23.282;2022-07-23T11:30:51;16.15;;;6.20;;
6463;SDS011;3265;42.694;23.282;2022-07-23T11:33:20;19.10;;;6.13;;
6463;SDS011;3265;42.694;23.282;2022-07-23T11:35:59;20.65;;;6.38;;
6463;SDS011;3265;42.694;23.282;2022-07-23T11:38:30;20.83;;;7.00;;
6463;SDS011;3265;42.694;23.282;2022-07-23T11:41:00;16.13;;;6.93;;
6463;SDS011;3265;42.694;23.282;2022-07-23T11:43:27;25.40;;;6.30;;
6463;SDS011;3265;42.694;23.282;2022-07-23T11:45:56;18.38;;;5.43;;
6463;SDS011;3265;42.694;23.282;2022-07-23T11:48:25;17.75;;;5.85;;
6463;SDS011;3265;42.694;23.282;2022-07-23T11:50:57;19.88;;;5.53;;
6463;SDS011;3265;42.694;23.282;2022-07-23T11:53:26;19.80;;;5.45;;
6463;SDS011;3265;42.694;23.282;2022-07-23T11:56:04;16.08;;;5.57;;
6463;SDS011;3265;42.694;23.282;2022-07-23T11:58:31;18.25;;;4.95;;
6463;SDS011;3265;42.694;23.282;2022-07-23T12:00:58;19.10;;;5.25;;
6463;SDS011;3265;42.694;23.282;2022-07-23T12:03:25;21.35;;;5.32;;
6463;SDS011;3265;42.694;23.282;2022-07-23T12:05:55;15.90;;;5.47;;
6463;SDS011;3265;42.694;23.282;2022-07-23T12:08:23;17.65;;;5.80;;
6463;SDS011;3265;42.694;23.282;2022-07-23T12:10:50;18.15;;;5.95;;
6463;SDS011;3265;42.694;23.282;2022-07-23T12:13:19;15.77;;;5.18;;
6463;SDS011;3265;42.694;23.282;2022-07-23T12:15:49;13.93;;;5.40;;
6463;SDS011;3265;42.694;23.282;2022-07-23T12:18:19;19.98;;;5.90;;
6463;SDS011;3265;42.694;23.282;2022-07-23T12:20:47;17.48;;;4.88;;
6463;SDS011;3265;42.694;23.282;2022-07-23T12:23:16;21.33;;;5.80;;
6463;SDS011;3265;42.694;23.282;2022-07-23T12:25:46;49.90;;;6.07;;
6463;SDS011;3265;42.694;23.282;2022-07-23T12:28:16;20.48;;;5.53;;
6463;SDS011;3265;42.694;23.282;2022-07-23T12:30:46;17.67;;;5.95;;
6463;SDS011;3265;42.694;23.282;2022-07-23T12:33:18;16.90;;;5.30;;
6463;SDS011;3265;42.694;23.282;2022-07-23T12:35:49;19.50;;;5.25;;
6463;SDS011;3265;42.694;23.282;2022-07-23T12:38:17;18.13;;;5.70;;
6463;SDS011;3265;42.694;23.282;2022-07-23T12:40:50;21.80;;;5.80;;
6463;SDS011;3265;42.694;23.282;2022-07-23T12:43:20;18.63;;;5.35;;
6463;SDS011;3265;42.694;23.282;2022-07-23T12:45:49;14.02;;;5.00;;
6463;SDS011;3265;42.694;23.282;2022-07-23T12:48:18;19.02;;;5.95;;
6463;SDS011;3265;42.694;23.282;2022-07-23T12:50:53;14.30;;;5.85;;
6463;SDS011;3265;42.694;23.282;2022-07-23T12:53:22;19.02;;;5.63;;
6463;SDS011;3265;42.694;23.282;2022-07-23T12:55:50;13.93;;;5.53;;
6463;SDS011;3265;42.694;23.282;2022-07-23T12:58:25;18.98;;;6.03;;
6463;SDS011;3265;42.694;23.282;2022-07-23T13:00:53;11.70;;;5.35;;
6463;SDS011;3265;42.694;23.282;2022-07-23T13:03:21;18.58;;;5.75;;
6463;SDS011;3265;42.694;23.282;2022-07-23T13:05:49;16.33;;;5.88;;
6463;SDS011;3265;42.694;23.282;2022-07-23T13:08:16;19.90;;;6.80;;
6463;SDS011;3265;42.694;23.282;2022-07-23T13:10:43;14.52;;;5.57;;
6463;SDS011;3265;42.694;23.282;2022-07-23T13:13:12;20.13;;;5.50;;
6463;SDS011;3265;42.694;23.282;2022-07-23T13:15:41;18.65;;;6.03;;
6463;SDS011;3265;42.694;23.282;2022-07-23T13:18:08;12.05;;;5.50;;
6463;SDS011;3265;42.694;23.282;2022-07-23T13:20:35;13.75;;;5.07;;
6463;SDS011;3265;42.694;23.282;2022-07-23T13:23:04;19.17;;;4.75;;
6463;SDS011;3265;42.694;23.282;2022-07-23T13:25:31;14.40;;;5.00;;
6463;SDS011;3265;42.694;23.282;2022-07-23T13:27:58;18.25;;;5.35;;
6463;SDS011;3265;42.694;23.282;2022-07-23T13:30:26;20.92;;;5.35;;
6463;SDS011;3265;42.694;23.282;2022-07-23T13:32:54;17.08;;;5.65;;
6463;SDS011;3265;42.694;23.282;2022-07-23T13:35:21;11.75;;;4.28;;
6463;SDS011;3265;42.694;23.282;2022-07-23T13:37:49;16.92;;;5.10;;
6463;SDS011;3265;42.694;23.282;2022-07-23T13:40:16;14.65;;;5.10;;
6463;SDS011;3265;42.694;23.282;2022-07-23T13:42:43;15.55;;;5.28;;
6463;SDS011;3265;42.694;23.282;2022-07-23T13:45:10;12.63;;;4.68;;
6463;SDS011;3265;42.694;23.282;2022-07-23T13:47:37;13.68;;;4.97;;
6463;SDS011;3265;42.694;23.282;2022-07-23T13:50:06;16.30;;;5.25;;
6463;SDS011;3265;42.694;23.282;2022-07-23T13:52:33;12.88;;;5.00;;
6463;SDS011;3265;42.694;23.282;2022-07-23T13:55:00;12.43;;;5.10;;
6463;SDS011;3265;42.694;23.282;2022-07-23T13:57:29;18.10;;;5.32;;
6463;SDS011;3265;42.694;23.282;2022-07-23T13:59:55;14.43;;;4.85;;
6463;SDS011;3265;42.694;23.282;2022-07-23T14:02:23;16.85;;;5.38;;
6463;SDS011;3265;42.694;23.282;2022-07-23T14:04:51;15.98;;;4.90;;
6463;SDS011;3265;42.694;23.282;2022-07-23T14:07:20;10.93;;;4.75;;
6463;SDS011;3265;42.694;23.282;2022-07-23T14:09:47;14.88;;;5.18;;
6463;SDS011;3265;42.694;23.282;2022-07-23T14:12:14;15.15;;;5.72;;
6463;SDS011;3265;42.694;23.282;2022-07-23T14:14:41;16.25;;;5.15;;
6463;SDS011;3265;42.694;23.282;2022-07-23T14:17:08;14.07;;;4.95;;
6463;SDS011;3265;42.694;23.282;2022-07-23T14:19:35;13.90;;;5.28;;
6463;SDS011;3265;42.694;23.282;2022-07-23T14:22:02;13.40;;;4.95;;
6463;SDS011;3265;42.694;23.282;2022-07-23T14:24:30;16.30;;;5.15;;
6463;SDS011;3265;42.694;23.282;2022-07-23T14:26:59;14.93;;;5.07;;
6463;SDS011;3265;42.694;23.282;2022-07-23T14:29:26;13.75;;;5.47;;
6463;SDS011;3265;42.694;23.282;2022-07-23T14:31:53;12.15;;;5.00;;
6463;SDS011;3265;42.694;23.282;2022-07-23T14:34:20;14.55;;;5.05;;
6463;SDS011;3265;42.694;23.282;2022-07-23T14:36:47;15.13;;;5.57;;
6463;SDS011;3265;42.694;23.282;2022-07-23T14:39:14;13.98;;;5.57;;
6463;SDS011;3265;42.694;23.282;2022-07-23T14:41:42;19.65;;;5.60;;
6463;SDS011;3265;42.694;23.282;2022-07-23T14:44:09;16.30;;;5.30;;
6463;SDS011;3265;42.694;23.282;2022-07-23T14:46:36;14.25;;;4.93;;
6463;SDS011;3265;42.694;23.282;2022-07-23T14:49:04;16.63;;;5.75;;
6463;SDS011;3265;42.694;23.282;2022-07-23T14:51:31;13.80;;;5.47;;
6463;SDS011;3265;42.694;23.282;2022-07-23T14:53:58;12.40;;;5.13;;
6463;SDS011;3265;42.694;23.282;2022-07-23T14:56:25;11.93;;;5.65;;
6463;SDS011;3265;42.694;23.282;2022-07-23T14:58:53;15.90;;;5.70;;